sensor_id;sensor_type;location;lat;lon;timestamp;P1;durP1;ratioP1;P2;durP2;ratioP2
41343;SDS011;27089;50.022;7.604;2023-04-25T00:01:39;7.30;;;6.20;;
41343;SDS011;27089;50.022;7.604;2023-04-25T00:04:08;9.43;;;6.37;;
41343;SDS011;27089;50.022;7.604;2023-04-25T00:06:36;7.23;;;6.03;;
41343;SDS011;27089;50.022;7.604;2023-04-25T00:09:04;8.43;;;6.07;;
41343;SDS011;27089;50.022;7.604;2023-04-25T00:11:34;8.13;;;5.93;;
41343;SDS011;27089;50.022;7.604;2023-04-25T00:14:01;6.37;;;5.43;;
41343;SDS011;27089;50.022;7.604;2023-04-25T00:16:29;7.73;;;6.07;;
41343;SDS011;27089;50.022;7.604;2023-04-25T00:18:58;8.00;;;6.07;;
41343;SDS011;27089;50.022;7.604;2023-04-25T00:21:28;9.20;;;6.70;;
41343;SDS011;27089;50.022;7.604;2023-04-25T00:23:56;9.73;;;6.80;;
41343;SDS011;27089;50.022;7.604;2023-04-25T00:26:23;9.30;;;6.60;;
41343;SDS011;27089;50.022;7.604;2023-04-25T00:28:50;7.27;;;6.13;;
41343;SDS011;27089;50.022;7.604;2023-04-25T00:31:17;9.77;;;7.47;;
41343;SDS011;27089;50.022;7.604;2023-04-25T00:33:44;7.07;;;5.77;;
41343;SDS011;27089;50.022;7.604;2023-04-25T00:36:11;8.83;;;6.33;;
41343;SDS011;27089;50.022;7.604;2023-04-25T00:38:40;9.00;;;6.57;;
41343;SDS011;27089;50.022;7.604;2023-04-25T00:41:07;7.93;;;6.17;;
41343;SDS011;27089;50.022;7.604;2023-04-25T00:43:34;12.07;;;7.53;;
41343;SDS011;27089;50.022;7.604;2023-04-25T00:46:03;10.23;;;6.80;;
41343;SDS011;27089;50.022;7.604;2023-04-25T00:48:30;9.10;;;6.43;;
41343;SDS011;27089;50.022;7.604;2023-04-25T00:50:57;8.87;;;7.10;;
41343;SDS011;27089;50.022;7.604;2023-04-25T00:53:25;7.70;;;6.27;;
41343;SDS011;27089;50.022;7.604;2023-04-25T00:55:55;8.07;;;6.30;;
41343;SDS011;27089;50.022;7.604;2023-04-25T00:58:22;7.53;;;6.13;;
41343;SDS011;27089;50.022;7.604;2023-04-25T01:00:50;8.53;;;6.40;;
41343;SDS011;27089;50.022;7.604;2023-04-25T01:03:18;7.10;;;6.40;;
41343;SDS011;27089;50.022;7.604;2023-04-25T01:05:46;7.70;;;5.93;;
41343;SDS011;27089;50.022;7.604;2023-04-25T01:08:13;7.83;;;5.40;;
41343;SDS011;27089;50.022;7.604;2023-04-25T01:10:40;8.37;;;6.00;;
41343;SDS011;27089;50.022;7.604;2023-04-25T01:13:09;7.00;;;6.17;;
41343;SDS011;27089;50.022;7.604;2023-04-25T01:15:36;6.77;;;5.63;;
41343;SDS011;27089;50.022;7.604;2023-04-25T01:18:03;7.60;;;5.53;;
41343;SDS011;27089;50.022;7.604;2023-04-25T01:20:31;10.30;;;6.37;;
41343;SDS011;27089;50.022;7.604;2023-04-25T01:23:01;7.67;;;6.47;;
41343;SDS011;27089;50.022;7.604;2023-04-25T01:25:29;8.30;;;6.53;;
41343;SDS011;27089;50.022;7.604;2023-04-25T01:27:56;8.77;;;6.53;;
41343;SDS011;27089;50.022;7.604;2023-04-25T01:30:24;8.67;;;6.03;;
41343;SDS011;27089;50.022;7.604;2023-04-25T01:32:52;7.77;;;5.97;;
41343;SDS011;27089;50.022;7.604;2023-04-25T01:35:20;9.00;;;6.60;;
41343;SDS011;27089;50.022;7.604;2023-04-25T01:37:49;10.30;;;6.30;;
41343;SDS011;27089;50.022;7.604;2023-04-25T01:40:17;7.93;;;6.03;;
41343;SDS011;27089;50.022;7.604;2023-04-25T01:42:45;8.20;;;6.03;;
41343;SDS011;27089;50.022;7.604;2023-04-25T01:45:12;7.80;;;6.13;;
41343;SDS011;27089;50.022;7.604;2023-04-25T01:47:39;8.20;;;5.60;;
41343;SDS011;27089;50.022;7.604;2023-04-25T01:50:09;7.60;;;6.03;;
41343;SDS011;27089;50.022;7.604;2023-04-25T01:52:37;8.83;;;6.10;;
41343;SDS011;27089;50.022;7.604;2023-04-25T01:55:05;7.53;;;5.70;;
41343;SDS011;27089;50.022;7.604;2023-04-25T01:57:34;8.90;;;6.33;;
41343;SDS011;27089;50.022;7.604;2023-04-25T02:00:01;7.93;;;5.90;;
41343;SDS011;27089;50.022;7.604;2023-04-25T02:02:30;6.93;;;5.43;;
41343;SDS011;27089;50.022;7.604;2023-04-25T02:04:57;9.37;;;7.03;;
41343;SDS011;27089;50.022;7.604;2023-04-25T02:07:25;8.63;;;6.60;;
41343;SDS011;27089;50.022;7.604;2023-04-25T02:09:52;8.93;;;6.53;;
41343;SDS011;27089;50.022;7.604;2023-04-25T02:12:19;8.97;;;6.80;;
41343;SDS011;27089;50.022;7.604;2023-04-25T02:14:47;10.83;;;7.83;;
41343;SDS011;27089;50.022;7.604;2023-04-25T02:17:15;10.53;;;8.03;;
41343;SDS011;27089;50.022;7.604;2023-04-25T02:19:42;11.90;;;8.17;;
41343;SDS011;27089;50.022;7.604;2023-04-25T02:22:10;11.63;;;8.17;;
41343;SDS011;27089;50.022;7.604;2023-04-25T02:24:37;11.03;;;7.67;;
41343;SDS011;27089;50.022;7.604;2023-04-25T02:27:05;11.27;;;8.30;;
41343;SDS011;27089;50.022;7.604;2023-04-25T02:29:32;11.60;;;8.90;;
41343;SDS011;27089;50.022;7.604;2023-04-25T02:32:01;13.40;;;9.47;;
41343;SDS011;27089;50.022;7.604;2023-04-25T02:34:28;15.07;;;9.73;;
41343;SDS011;27089;50.022;7.604;2023-04-25T02:36:55;13.43;;;9.23;;
41343;SDS011;27089;50.022;7.604;2023-04-25T02:39:22;12.40;;;9.33;;
41343;SDS011;27089;50.022;7.604;2023-04-25T02:41:50;13.97;;;8.97;;
41343;SDS011;27089;50.022;7.604;2023-04-25T02:44:18;12.37;;;9.10;;
41343;SDS011;27089;50.022;7.604;2023-04-25T02:46:45;11.57;;;8.30;;
41343;SDS011;27089;50.022;7.604;2023-04-25T02:49:13;11.40;;;8.07;;
41343;SDS011;27089;50.022;7.604;2023-04-25T02:51:40;10.50;;;8.00;;
41343;SDS011;27089;50.022;7.604;2023-04-25T02:54:07;12.53;;;7.90;;
41343;SDS011;27089;50.022;7.604;2023-04-25T02:56:34;12.50;;;8.77;;
41343;SDS011;27089;50.022;7.604;2023-04-25T02:59:01;11.97;;;8.97;;
41343;SDS011;27089;50.022;7.604;2023-04-25T03:01:28;11.30;;;8.80;;
41343;SDS011;27089;50.022;7.604;2023-04-25T03:03:55;11.87;;;8.33;;
41343;SDS011;27089;50.022;7.604;2023-04-25T03:06:23;13.13;;;9.17;;
41343;SDS011;27089;50.022;7.604;2023-04-25T03:08:50;13.33;;;8.67;;
41343;SDS011;27089;50.022;7.604;2023-04-25T03:11:17;9.90;;;8.00;;
41343;SDS011;27089;50.022;7.604;2023-04-25T03:13:45;10.40;;;7.90;;
41343;SDS011;27089;50.022;7.604;2023-04-25T03:16:12;10.00;;;7.87;;
41343;SDS011;27089;50.022;7.604;2023-04-25T03:18:39;10.53;;;7.70;;
41343;SDS011;27089;50.022;7.604;2023-04-25T03:21:06;10.83;;;7.57;;
41343;SDS011;27089;50.022;7.604;2023-04-25T03:23:34;9.77;;;7.17;;
41343;SDS011;27089;50.022;7.604;2023-04-25T03:26:01;11.37;;;7.37;;
41343;SDS011;27089;50.022;7.604;2023-04-25T03:28:29;9.87;;;7.93;;
41343;SDS011;27089;50.022;7.604;2023-04-25T03:30:56;10.47;;;8.00;;
41343;SDS011;27089;50.022;7.604;2023-04-25T03:33:23;10.43;;;8.10;;
41343;SDS011;27089;50.022;7.604;2023-04-25T03:35:50;10.43;;;7.97;;
41343;SDS011;27089;50.022;7.604;2023-04-25T03:38:17;10.10;;;8.33;;
41343;SDS011;27089;50.022;7.604;2023-04-25T03:40:45;12.40;;;8.97;;
41343;SDS011;27089;50.022;7.604;2023-04-25T03:43:12;12.90;;;9.83;;
41343;SDS011;27089;50.022;7.604;2023-04-25T03:45:39;14.63;;;10.37;;
41343;SDS011;27089;50.022;7.604;2023-04-25T03:48:06;14.57;;;9.73;;
41343;SDS011;27089;50.022;7.604;2023-04-25T03:50:34;13.07;;;9.80;;
41343;SDS011;27089;50.022;7.604;2023-04-25T03:53:01;14.13;;;10.67;;
41343;SDS011;27089;50.022;7.604;2023-04-25T03:55:28;15.80;;;11.50;;
41343;SDS011;27089;50.022;7.604;2023-04-25T03:57:57;15.70;;;10.83;;
41343;SDS011;27089;50.022;7.604;2023-04-25T04:00:24;15.00;;;11.17;;
41343;SDS011;27089;50.022;7.604;2023-04-25T04:02:51;17.50;;;12.03;;
41343;SDS011;27089;50.022;7.604;2023-04-25T04:05:18;16.93;;;11.83;;
41343;SDS011;27089;50.022;7.604;2023-04-25T04:07:45;19.07;;;11.50;;
41343;SDS011;27089;50.022;7.604;2023-04-25T04:10:12;16.13;;;11.07;;
41343;SDS011;27089;50.022;7.604;2023-04-25T04:12:39;20.27;;;11.90;;
41343;SDS011;27089;50.022;7.604;2023-04-25T04:15:08;17.53;;;11.70;;
41343;SDS011;27089;50.022;7.604;2023-04-25T04:17:36;14.23;;;10.30;;
41343;SDS011;27089;50.022;7.604;2023-04-25T04:20:04;14.33;;;9.40;;
41343;SDS011;27089;50.022;7.604;2023-04-25T04:22:32;16.53;;;8.80;;
41343;SDS011;27089;50.022;7.604;2023-04-25T04:24:59;15.90;;;8.97;;
41343;SDS011;27089;50.022;7.604;2023-04-25T04:27:27;14.70;;;8.60;;
41343;SDS011;27089;50.022;7.604;2023-04-25T04:29:54;15.50;;;8.33;;
41343;SDS011;27089;50.022;7.604;2023-04-25T04:32:24;12.83;;;7.80;;
41343;SDS011;27089;50.022;7.604;2023-04-25T04:34:52;14.43;;;6.93;;
41343;SDS011;27089;50.022;7.604;2023-04-25T04:37:21;13.90;;;6.63;;
41343;SDS011;27089;50.022;7.604;2023-04-25T04:39:48;11.17;;;6.97;;
41343;SDS011;27089;50.022;7.604;2023-04-25T04:42:15;10.40;;;6.60;;
41343;SDS011;27089;50.022;7.604;2023-04-25T04:44:42;13.93;;;6.43;;
41343;SDS011;27089;50.022;7.604;2023-04-25T04:47:09;14.63;;;6.93;;
41343;SDS011;27089;50.022;7.604;2023-04-25T04:49:41;14.17;;;7.17;;
41343;SDS011;27089;50.022;7.604;2023-04-25T04:52:08;13.00;;;7.73;;
41343;SDS011;27089;50.022;7.604;2023-04-25T04:54:35;15.47;;;7.60;;
41343;SDS011;27089;50.022;7.604;2023-04-25T04:57:02;14.53;;;7.17;;
41343;SDS011;27089;50.022;7.604;2023-04-25T04:59:29;12.30;;;6.77;;
41343;SDS011;27089;50.022;7.604;2023-04-25T05:01:56;13.47;;;7.10;;
41343;SDS011;27089;50.022;7.604;2023-04-25T05:04:23;17.47;;;7.77;;
41343;SDS011;27089;50.022;7.604;2023-04-25T05:06:51;14.03;;;7.17;;
41343;SDS011;27089;50.022;7.604;2023-04-25T05:09:18;12.30;;;6.90;;
41343;SDS011;27089;50.022;7.604;2023-04-25T05:11:45;11.03;;;7.27;;
41343;SDS011;27089;50.022;7.604;2023-04-25T05:14:12;26.00;;;13.33;;
41343;SDS011;27089;50.022;7.604;2023-04-25T05:16:39;16.33;;;7.20;;
41343;SDS011;27089;50.022;7.604;2023-04-25T05:19:06;19.90;;;7.60;;
41343;SDS011;27089;50.022;7.604;2023-04-25T05:21:33;15.57;;;7.00;;
41343;SDS011;27089;50.022;7.604;2023-04-25T05:24:02;15.40;;;7.50;;
41343;SDS011;27089;50.022;7.604;2023-04-25T05:26:29;15.10;;;8.10;;
41343;SDS011;27089;50.022;7.604;2023-04-25T05:28:56;15.80;;;7.27;;
41343;SDS011;27089;50.022;7.604;2023-04-25T05:31:23;11.80;;;7.00;;
41343;SDS011;27089;50.022;7.604;2023-04-25T05:33:50;14.03;;;7.10;;
41343;SDS011;27089;50.022;7.604;2023-04-25T05:36:18;12.60;;;7.23;;
41343;SDS011;27089;50.022;7.604;2023-04-25T05:38:45;16.63;;;7.10;;
41343;SDS011;27089;50.022;7.604;2023-04-25T05:41:13;11.43;;;7.00;;
41343;SDS011;27089;50.022;7.604;2023-04-25T05:43:40;28.67;;;18.57;;
41343;SDS011;27089;50.022;7.604;2023-04-25T05:46:12;15.33;;;6.63;;
41343;SDS011;27089;50.022;7.604;2023-04-25T05:48:39;16.27;;;7.30;;
41343;SDS011;27089;50.022;7.604;2023-04-25T05:51:06;15.13;;;7.53;;
41343;SDS011;27089;50.022;7.604;2023-04-25T05:53:33;13.17;;;6.97;;
41343;SDS011;27089;50.022;7.604;2023-04-25T05:56:00;11.47;;;5.67;;
41343;SDS011;27089;50.022;7.604;2023-04-25T05:58:29;13.33;;;6.43;;
41343;SDS011;27089;50.022;7.604;2023-04-25T06:00:56;9.73;;;4.70;;
41343;SDS011;27089;50.022;7.604;2023-04-25T06:03:23;15.87;;;7.23;;
41343;SDS011;27089;50.022;7.604;2023-04-25T06:05:50;10.90;;;5.10;;
41343;SDS011;27089;50.022;7.604;2023-04-25T06:08:17;12.10;;;5.67;;
41343;SDS011;27089;50.022;7.604;2023-04-25T06:10:44;13.33;;;4.90;;
41343;SDS011;27089;50.022;7.604;2023-04-25T06:13:11;9.93;;;4.50;;
41343;SDS011;27089;50.022;7.604;2023-04-25T06:15:39;11.03;;;4.37;;
41343;SDS011;27089;50.022;7.604;2023-04-25T06:18:06;11.37;;;5.00;;
41343;SDS011;27089;50.022;7.604;2023-04-25T06:20:34;13.83;;;4.20;;
41343;SDS011;27089;50.022;7.604;2023-04-25T06:23:00;12.60;;;4.90;;
41343;SDS011;27089;50.022;7.604;2023-04-25T06:25:28;12.77;;;8.10;;
41343;SDS011;27089;50.022;7.604;2023-04-25T06:27:54;6.63;;;3.77;;
41343;SDS011;27089;50.022;7.604;2023-04-25T06:30:21;11.73;;;4.03;;
41343;SDS011;27089;50.022;7.604;2023-04-25T06:32:52;7.07;;;3.30;;
41343;SDS011;27089;50.022;7.604;2023-04-25T06:35:19;9.80;;;3.60;;
41343;SDS011;27089;50.022;7.604;2023-04-25T06:37:46;7.40;;;3.63;;
41343;SDS011;27089;50.022;7.604;2023-04-25T06:40:13;8.00;;;3.10;;
41343;SDS011;27089;50.022;7.604;2023-04-25T06:42:42;6.57;;;3.47;;
41343;SDS011;27089;50.022;7.604;2023-04-25T06:45:09;6.70;;;2.93;;
41343;SDS011;27089;50.022;7.604;2023-04-25T06:47:37;6.67;;;3.10;;
41343;SDS011;27089;50.022;7.604;2023-04-25T06:50:06;6.57;;;3.07;;
41343;SDS011;27089;50.022;7.604;2023-04-25T06:52:34;6.07;;;2.87;;
41343;SDS011;27089;50.022;7.604;2023-04-25T06:55:01;14.27;;;5.47;;
41343;SDS011;27089;50.022;7.604;2023-04-25T06:57:30;9.13;;;2.87;;
41343;SDS011;27089;50.022;7.604;2023-04-25T06:59:57;5.20;;;2.53;;
41343;SDS011;27089;50.022;7.604;2023-04-25T07:02:24;9.40;;;2.93;;
41343;SDS011;27089;50.022;7.604;2023-04-25T07:04:51;11.20;;;3.93;;
41343;SDS011;27089;50.022;7.604;2023-04-25T07:07:19;13.40;;;5.17;;
41343;SDS011;27089;50.022;7.604;2023-04-25T07:09:46;7.10;;;2.87;;
41343;SDS011;27089;50.022;7.604;2023-04-25T07:12:13;5.37;;;2.83;;
41343;SDS011;27089;50.022;7.604;2023-04-25T07:14:40;6.53;;;3.50;;
41343;SDS011;27089;50.022;7.604;2023-04-25T07:17:07;5.40;;;2.47;;
41343;SDS011;27089;50.022;7.604;2023-04-25T07:19:34;5.23;;;2.60;;
41343;SDS011;27089;50.022;7.604;2023-04-25T07:22:02;9.43;;;2.90;;
41343;SDS011;27089;50.022;7.604;2023-04-25T07:24:31;5.03;;;2.60;;
41343;SDS011;27089;50.022;7.604;2023-04-25T07:26:58;6.03;;;2.60;;
41343;SDS011;27089;50.022;7.604;2023-04-25T07:29:26;10.03;;;2.80;;
41343;SDS011;27089;50.022;7.604;2023-04-25T07:31:55;5.13;;;2.47;;
41343;SDS011;27089;50.022;7.604;2023-04-25T07:34:22;7.10;;;3.87;;
41343;SDS011;27089;50.022;7.604;2023-04-25T07:36:49;6.63;;;4.80;;
41343;SDS011;27089;50.022;7.604;2023-04-25T07:39:16;7.03;;;3.67;;
41343;SDS011;27089;50.022;7.604;2023-04-25T07:41:44;6.63;;;4.23;;
41343;SDS011;27089;50.022;7.604;2023-04-25T07:44:11;10.37;;;4.60;;
41343;SDS011;27089;50.022;7.604;2023-04-25T07:46:38;7.67;;;3.63;;
41343;SDS011;27089;50.022;7.604;2023-04-25T07:49:05;5.00;;;3.50;;
41343;SDS011;27089;50.022;7.604;2023-04-25T07:51:32;8.83;;;3.93;;
41343;SDS011;27089;50.022;7.604;2023-04-25T07:53:59;10.37;;;3.67;;
41343;SDS011;27089;50.022;7.604;2023-04-25T07:56:26;7.70;;;3.57;;
41343;SDS011;27089;50.022;7.604;2023-04-25T07:58:54;6.93;;;3.90;;
41343;SDS011;27089;50.022;7.604;2023-04-25T08:01:22;7.83;;;3.87;;
41343;SDS011;27089;50.022;7.604;2023-04-25T08:03:49;8.97;;;4.63;;
41343;SDS011;27089;50.022;7.604;2023-04-25T08:06:16;8.97;;;4.77;;
41343;SDS011;27089;50.022;7.604;2023-04-25T08:08:43;11.23;;;5.70;;
41343;SDS011;27089;50.022;7.604;2023-04-25T08:11:10;8.80;;;7.50;;
41343;SDS011;27089;50.022;7.604;2023-04-25T08:13:37;10.47;;;7.13;;
41343;SDS011;27089;50.022;7.604;2023-04-25T08:16:05;10.23;;;4.20;;
41343;SDS011;27089;50.022;7.604;2023-04-25T08:18:32;9.93;;;4.80;;
41343;SDS011;27089;50.022;7.604;2023-04-25T08:20:59;7.47;;;5.03;;
41343;SDS011;27089;50.022;7.604;2023-04-25T08:23:26;5.87;;;3.67;;
41343;SDS011;27089;50.022;7.604;2023-04-25T08:25:53;9.03;;;3.83;;
41343;SDS011;27089;50.022;7.604;2023-04-25T08:28:20;6.80;;;3.87;;
41343;SDS011;27089;50.022;7.604;2023-04-25T08:30:47;7.47;;;3.40;;
41343;SDS011;27089;50.022;7.604;2023-04-25T08:33:15;9.60;;;4.47;;
41343;SDS011;27089;50.022;7.604;2023-04-25T08:35:43;5.60;;;3.37;;
41343;SDS011;27089;50.022;7.604;2023-04-25T08:38:10;6.90;;;3.13;;
41343;SDS011;27089;50.022;7.604;2023-04-25T08:40:38;5.87;;;3.40;;
41343;SDS011;27089;50.022;7.604;2023-04-25T08:43:06;7.77;;;4.00;;
41343;SDS011;27089;50.022;7.604;2023-04-25T08:45:36;8.37;;;4.03;;
41343;SDS011;27089;50.022;7.604;2023-04-25T08:48:05;7.00;;;3.50;;
41343;SDS011;27089;50.022;7.604;2023-04-25T08:50:37;7.23;;;3.93;;
41343;SDS011;27089;50.022;7.604;2023-04-25T08:53:07;9.33;;;4.40;;
41343;SDS011;27089;50.022;7.604;2023-04-25T08:55:38;8.23;;;3.50;;
41343;SDS011;27089;50.022;7.604;2023-04-25T08:58:08;10.13;;;4.70;;
41343;SDS011;27089;50.022;7.604;2023-04-25T09:00:37;9.77;;;4.13;;
41343;SDS011;27089;50.022;7.604;2023-04-25T09:03:04;8.60;;;4.30;;
41343;SDS011;27089;50.022;7.604;2023-04-25T09:05:32;9.90;;;4.17;;
41343;SDS011;27089;50.022;7.604;2023-04-25T09:08:01;6.70;;;3.70;;
41343;SDS011;27089;50.022;7.604;2023-04-25T09:10:28;6.50;;;3.77;;
41343;SDS011;27089;50.022;7.604;2023-04-25T09:13:02;9.73;;;4.30;;
41343;SDS011;27089;50.022;7.604;2023-04-25T09:15:31;8.77;;;4.10;;
41343;SDS011;27089;50.022;7.604;2023-04-25T09:17:58;7.97;;;4.03;;
41343;SDS011;27089;50.022;7.604;2023-04-25T09:20:26;9.67;;;3.90;;
41343;SDS011;27089;50.022;7.604;2023-04-25T09:23:02;6.87;;;3.87;;
41343;SDS011;27089;50.022;7.604;2023-04-25T09:25:33;10.23;;;4.17;;
41343;SDS011;27089;50.022;7.604;2023-04-25T09:28:03;6.63;;;3.47;;
41343;SDS011;27089;50.022;7.604;2023-04-25T09:30:32;9.53;;;3.90;;
41343;SDS011;27089;50.022;7.604;2023-04-25T09:33:03;7.97;;;3.50;;
41343;SDS011;27089;50.022;7.604;2023-04-25T09:35:35;6.20;;;3.30;;
41343;SDS011;27089;50.022;7.604;2023-04-25T09:38:08;8.80;;;3.63;;
41343;SDS011;27089;50.022;7.604;2023-04-25T09:40:39;7.83;;;2.80;;
41343;SDS011;27089;50.022;7.604;2023-04-25T09:43:08;7.10;;;3.00;;
41343;SDS011;27089;50.022;7.604;2023-04-25T09:45:45;6.20;;;2.80;;
41343;SDS011;27089;50.022;7.604;2023-04-25T09:48:16;8.37;;;3.60;;
41343;SDS011;27089;50.022;7.604;2023-04-25T09:50:45;49.50;;;22.80;;
41343;SDS011;27089;50.022;7.604;2023-04-25T09:53:13;21.03;;;11.17;;
41343;SDS011;27089;50.022;7.604;2023-04-25T09:55:40;9.50;;;3.67;;
41343;SDS011;27089;50.022;7.604;2023-04-25T09:58:10;7.57;;;3.93;;
41343;SDS011;27089;50.022;7.604;2023-04-25T10:00:38;7.00;;;3.70;;
41343;SDS011;27089;50.022;7.604;2023-04-25T10:03:06;11.87;;;4.47;;
41343;SDS011;27089;50.022;7.604;2023-04-25T10:05:34;8.57;;;3.10;;
41343;SDS011;27089;50.022;7.604;2023-04-25T10:08:02;9.90;;;3.77;;
41343;SDS011;27089;50.022;7.604;2023-04-25T10:10:33;9.13;;;3.20;;
41343;SDS011;27089;50.022;7.604;2023-04-25T10:13:03;6.97;;;3.17;;
41343;SDS011;27089;50.022;7.604;2023-04-25T10:15:32;6.03;;;3.30;;
41343;SDS011;27089;50.022;7.604;2023-04-25T10:18:01;7.80;;;2.57;;
41343;SDS011;27089;50.022;7.604;2023-04-25T10:20:29;9.67;;;3.13;;
41343;SDS011;27089;50.022;7.604;2023-04-25T10:22:58;11.20;;;3.60;;
41343;SDS011;27089;50.022;7.604;2023-04-25T10:25:30;8.17;;;3.33;;
41343;SDS011;27089;50.022;7.604;2023-04-25T10:27:59;7.20;;;3.20;;
41343;SDS011;27089;50.022;7.604;2023-04-25T10:30:27;5.43;;;2.97;;
41343;SDS011;27089;50.022;7.604;2023-04-25T10:32:54;6.90;;;3.27;;
41343;SDS011;27089;50.022;7.604;2023-04-25T10:35:24;10.20;;;3.50;;
41343;SDS011;27089;50.022;7.604;2023-04-25T10:37:59;6.30;;;3.43;;
41343;SDS011;27089;50.022;7.604;2023-04-25T10:40:28;9.97;;;3.80;;
41343;SDS011;27089;50.022;7.604;2023-04-25T10:43:33;6.90;;;3.37;;
41343;SDS011;27089;50.022;7.604;2023-04-25T10:46:01;10.50;;;3.30;;
41343;SDS011;27089;50.022;7.604;2023-04-25T10:48:28;7.10;;;3.33;;
41343;SDS011;27089;50.022;7.604;2023-04-25T10:51:08;6.10;;;3.57;;
41343;SDS011;27089;50.022;7.604;2023-04-25T10:53:35;6.13;;;2.90;;
41343;SDS011;27089;50.022;7.604;2023-04-25T10:56:09;7.77;;;3.13;;
41343;SDS011;27089;50.022;7.604;2023-04-25T10:58:42;8.13;;;3.80;;
41343;SDS011;27089;50.022;7.604;2023-04-25T11:01:10;11.10;;;3.77;;
41343;SDS011;27089;50.022;7.604;2023-04-25T11:03:39;8.87;;;3.43;;
41343;SDS011;27089;50.022;7.604;2023-04-25T11:06:11;7.07;;;3.30;;
41343;SDS011;27089;50.022;7.604;2023-04-25T11:08:47;5.13;;;2.97;;
41343;SDS011;27089;50.022;7.604;2023-04-25T11:11:14;10.37;;;3.00;;
41343;SDS011;27089;50.022;7.604;2023-04-25T11:13:43;7.57;;;3.17;;
41343;SDS011;27089;50.022;7.604;2023-04-25T11:16:10;6.60;;;4.00;;
41343;SDS011;27089;50.022;7.604;2023-04-25T11:18:37;7.40;;;3.23;;
41343;SDS011;27089;50.022;7.604;2023-04-25T11:21:06;4.97;;;3.03;;
41343;SDS011;27089;50.022;7.604;2023-04-25T11:23:33;9.63;;;3.13;;
41343;SDS011;27089;50.022;7.604;2023-04-25T11:26:01;10.60;;;3.50;;
41343;SDS011;27089;50.022;7.604;2023-04-25T11:28:28;7.83;;;3.60;;
41343;SDS011;27089;50.022;7.604;2023-04-25T11:30:57;7.50;;;3.47;;
41343;SDS011;27089;50.022;7.604;2023-04-25T11:33:25;6.50;;;3.00;;
41343;SDS011;27089;50.022;7.604;2023-04-25T11:35:53;8.80;;;2.70;;
41343;SDS011;27089;50.022;7.604;2023-04-25T11:38:21;7.27;;;2.97;;
41343;SDS011;27089;50.022;7.604;2023-04-25T11:40:49;4.60;;;2.77;;
41343;SDS011;27089;50.022;7.604;2023-04-25T11:43:17;5.73;;;3.40;;
41343;SDS011;27089;50.022;7.604;2023-04-25T11:45:46;5.63;;;2.63;;
41343;SDS011;27089;50.022;7.604;2023-04-25T11:48:15;8.10;;;3.10;;
41343;SDS011;27089;50.022;7.604;2023-04-25T11:50:42;5.23;;;2.70;;
41343;SDS011;27089;50.022;7.604;2023-04-25T11:53:09;6.43;;;3.40;;
41343;SDS011;27089;50.022;7.604;2023-04-25T11:55:37;7.67;;;3.40;;
41343;SDS011;27089;50.022;7.604;2023-04-25T11:58:05;8.70;;;5.30;;
41343;SDS011;27089;50.022;7.604;2023-04-25T12:00:33;8.93;;;4.43;;
41343;SDS011;27089;50.022;7.604;2023-04-25T12:03:01;8.83;;;3.80;;
41343;SDS011;27089;50.022;7.604;2023-04-25T12:05:31;9.83;;;3.47;;
41343;SDS011;27089;50.022;7.604;2023-04-25T12:10:42;6.33;;;4.00;;
41343;SDS011;27089;50.022;7.604;2023-04-25T12:13:17;6.13;;;2.90;;
41343;SDS011;27089;50.022;7.604;2023-04-25T12:15:48;11.17;;;5.33;;
41343;SDS011;27089;50.022;7.604;2023-04-25T12:18:18;6.20;;;2.67;;
41343;SDS011;27089;50.022;7.604;2023-04-25T12:20:47;8.57;;;2.80;;
41343;SDS011;27089;50.022;7.604;2023-04-25T12:23:14;7.43;;;2.60;;
41343;SDS011;27089;50.022;7.604;2023-04-25T12:25:41;8.20;;;2.97;;
41343;SDS011;27089;50.022;7.604;2023-04-25T12:28:13;5.93;;;2.80;;
41343;SDS011;27089;50.022;7.604;2023-04-25T12:30:54;6.63;;;2.53;;
41343;SDS011;27089;50.022;7.604;2023-04-25T12:33:22;6.07;;;2.47;;
41343;SDS011;27089;50.022;7.604;2023-04-25T12:35:51;5.80;;;2.20;;
41343;SDS011;27089;50.022;7.604;2023-04-25T12:38:22;6.20;;;2.43;;
41343;SDS011;27089;50.022;7.604;2023-04-25T12:40:50;8.73;;;2.57;;
41343;SDS011;27089;50.022;7.604;2023-04-25T12:43:18;5.17;;;2.30;;
41343;SDS011;27089;50.022;7.604;2023-04-25T12:45:47;5.03;;;2.20;;
41343;SDS011;27089;50.022;7.604;2023-04-25T12:48:15;4.00;;;2.33;;
41343;SDS011;27089;50.022;7.604;2023-04-25T12:50:42;6.73;;;2.17;;
41343;SDS011;27089;50.022;7.604;2023-04-25T12:53:11;4.83;;;2.17;;
41343;SDS011;27089;50.022;7.604;2023-04-25T12:55:38;3.70;;;2.10;;
41343;SDS011;27089;50.022;7.604;2023-04-25T12:58:05;6.10;;;2.20;;
41343;SDS011;27089;50.022;7.604;2023-04-25T13:00:32;4.60;;;2.43;;
41343;SDS011;27089;50.022;7.604;2023-04-25T13:02:59;4.77;;;1.70;;
41343;SDS011;27089;50.022;7.604;2023-04-25T13:05:27;4.07;;;1.87;;
41343;SDS011;27089;50.022;7.604;2023-04-25T13:07:55;4.47;;;2.00;;
41343;SDS011;27089;50.022;7.604;2023-04-25T13:10:23;4.73;;;1.97;;
41343;SDS011;27089;50.022;7.604;2023-04-25T13:12:51;4.77;;;1.83;;
41343;SDS011;27089;50.022;7.604;2023-04-25T13:15:17;5.23;;;2.40;;
41343;SDS011;27089;50.022;7.604;2023-04-25T13:17:45;4.03;;;2.10;;
41343;SDS011;27089;50.022;7.604;2023-04-25T13:20:12;3.67;;;1.97;;
41343;SDS011;27089;50.022;7.604;2023-04-25T13:22:41;4.90;;;2.27;;
41343;SDS011;27089;50.022;7.604;2023-04-25T13:25:10;5.50;;;2.10;;
41343;SDS011;27089;50.022;7.604;2023-04-25T13:27:39;4.77;;;2.10;;
41343;SDS011;27089;50.022;7.604;2023-04-25T13:30:06;5.53;;;2.20;;
41343;SDS011;27089;50.022;7.604;2023-04-25T13:32:34;6.83;;;2.63;;
41343;SDS011;27089;50.022;7.604;2023-04-25T13:35:02;5.20;;;2.00;;
41343;SDS011;27089;50.022;7.604;2023-04-25T13:37:30;3.63;;;1.63;;
41343;SDS011;27089;50.022;7.604;2023-04-25T13:39:58;3.93;;;2.00;;
41343;SDS011;27089;50.022;7.604;2023-04-25T13:42:26;6.87;;;1.90;;
41343;SDS011;27089;50.022;7.604;2023-04-25T13:44:54;6.67;;;2.10;;
41343;SDS011;27089;50.022;7.604;2023-04-25T13:47:22;4.03;;;1.97;;
41343;SDS011;27089;50.022;7.604;2023-04-25T13:49:49;7.77;;;1.87;;
41343;SDS011;27089;50.022;7.604;2023-04-25T13:52:16;6.87;;;2.13;;
41343;SDS011;27089;50.022;7.604;2023-04-25T13:54:43;4.03;;;2.00;;
41343;SDS011;27089;50.022;7.604;2023-04-25T13:57:10;6.43;;;2.10;;
41343;SDS011;27089;50.022;7.604;2023-04-25T13:59:39;7.40;;;2.03;;
41343;SDS011;27089;50.022;7.604;2023-04-25T14:02:08;3.00;;;2.03;;
41343;SDS011;27089;50.022;7.604;2023-04-25T14:04:35;4.40;;;2.00;;
41343;SDS011;27089;50.022;7.604;2023-04-25T14:07:02;6.80;;;2.37;;
41343;SDS011;27089;50.022;7.604;2023-04-25T14:09:30;3.03;;;1.70;;
41343;SDS011;27089;50.022;7.604;2023-04-25T14:11:57;7.47;;;2.30;;
41343;SDS011;27089;50.022;7.604;2023-04-25T14:14:25;6.70;;;2.50;;
41343;SDS011;27089;50.022;7.604;2023-04-25T14:16:53;9.40;;;2.80;;
41343;SDS011;27089;50.022;7.604;2023-04-25T14:19:21;8.03;;;2.37;;
41343;SDS011;27089;50.022;7.604;2023-04-25T14:21:48;4.33;;;2.23;;
41343;SDS011;27089;50.022;7.604;2023-04-25T14:24:15;3.23;;;2.07;;
41343;SDS011;27089;50.022;7.604;2023-04-25T14:26:42;5.53;;;3.07;;
41343;SDS011;27089;50.022;7.604;2023-04-25T14:29:10;5.73;;;2.13;;
41343;SDS011;27089;50.022;7.604;2023-04-25T14:31:38;8.87;;;2.27;;
41343;SDS011;27089;50.022;7.604;2023-04-25T14:34:06;4.20;;;2.40;;
41343;SDS011;27089;50.022;7.604;2023-04-25T14:36:34;7.10;;;2.40;;
41343;SDS011;27089;50.022;7.604;2023-04-25T14:39:02;5.77;;;2.50;;
41343;SDS011;27089;50.022;7.604;2023-04-25T14:41:30;5.13;;;2.30;;
41343;SDS011;27089;50.022;7.604;2023-04-25T14:43:57;8.23;;;2.73;;
41343;SDS011;27089;50.022;7.604;2023-04-25T14:46:24;5.20;;;2.03;;
41343;SDS011;27089;50.022;7.604;2023-04-25T14:48:51;9.30;;;2.13;;
41343;SDS011;27089;50.022;7.604;2023-04-25T14:51:18;4.50;;;2.10;;